New Madison, Ohio
Current Conditions -  °F | °C
As of 10:15 AM on Wednesday 26 Nov 2014 (Local Time) from KVES Reporting Station
Overcast Overcast  
Wind Chill: 23°   Ceiling: 1300
Heat Index: 28°   Visibility: 10mi
Dew Point: 27°   Wind: 5mph
Humidity: 93%   Direction: 70°ENE
Pressure: 30.14"   Gusts: NA
Location:  39.97°N, 84.71°W
Report Text: KVES 261515Z AUTO 07004KT 10SM OVC013 M02/M03 A3014 RMK AO2
Loading
Personal Weather Stations






























Interactive Weather Map New forecast layout! Learn more

10-Day Weather Forecast

Advertisements
Track Severe Weather on mobile